Time;durP1;ratioP1;P1;durP2;ratioP2;P2;SDS_P1;SDS_P2;PMS_P1;PMS_P2;Temp;Humidity;BMP_temperature;BMP_pressure;BME280_temperature;BME280_humidity;BME280_pressure;Samples;Min_cycle;Max_cycle;Signal;HPM_P1;HPM_P2
2023/01/14 00:01:11;;;;;;;27.38;3.25;;;;;;;-143.48;71.24;118439.88;4998620;28;20037;-69
2023/01/14 00:03:36;;;;;;;17.92;3.13;;;;;;;-143.48;71.93;118439.88;5016304;28;20030;-69
2023/01/14 00:06:02;;;;;;;17.05;2.47;;;;;;;-143.48;71.63;118439.88;5016057;28;20032;-69
2023/01/14 00:08:29;;;;;;;14.95;2.40;;;;;;;-143.48;71.69;118439.88;4999675;28;20033;-69
2023/01/14 00:10:54;;;;;;;17.58;2.80;;;;;;;-143.48;72.67;118439.88;5020140;28;20026;-70
2023/01/14 00:13:20;;;;;;;26.77;4.35;;;;;;;-143.48;71.84;118439.88;4998534;28;20037;-70
2023/01/14 00:15:51;;;;;;;13.82;2.40;;;;;;;-143.48;71.69;118439.88;5016008;28;20105;-70
2023/01/14 00:18:16;;;;;;;17.58;2.55;;;;;;;-143.48;72.73;118439.88;5015712;28;20385;-70
2023/01/14 00:20:42;;;;;;;17.65;2.78;;;;;;;-143.48;72.73;118439.88;5015836;28;20029;-70
2023/01/14 00:23:07;;;;;;;15.18;2.67;;;;;;;-143.48;73.07;118439.88;5015889;28;20108;-70
2023/01/14 00:25:35;;;;;;;13.45;2.67;;;;;;;-143.48;74.31;118439.88;4998013;28;20054;-70
2023/01/14 00:28:00;;;;;;;22.85;3.35;;;;;;;-143.48;74.91;118439.88;4998265;28;20029;-70
2023/01/14 00:30:26;;;;;;;19.90;2.55;;;;;;;-143.48;73.75;118439.88;5015822;28;20026;-70
2023/01/14 00:32:51;;;;;;;22.02;3.33;;;;;;;-143.48;73.14;118439.88;4997992;28;20022;-68
2023/01/14 00:35:16;;;;;;;31.02;4.40;;;;;;;-143.48;73.74;118439.88;5015568;28;20081;-66
2023/01/14 00:37:42;;;;;;;19.95;3.70;;;;;;;-143.48;73.76;118439.88;4997884;28;20036;-66
2023/01/14 00:40:08;;;;;;;15.10;2.13;;;;;;;-143.48;75.35;118439.88;5015202;28;20511;-66
2023/01/14 00:42:33;;;;;;;17.15;2.63;;;;;;;-143.48;74.91;118439.88;4997587;28;20116;-67
2023/01/14 00:44:58;;;;;;;21.70;3.00;;;;;;;-143.48;74.36;118439.88;5015213;28;20029;-67
2023/01/14 00:47:23;;;;;;;23.13;2.90;;;;;;;-143.48;74.07;118439.88;5015450;28;20040;-66
2023/01/14 00:49:49;;;;;;;20.35;3.08;;;;;;;-143.48;74.41;118439.88;5015251;28;20588;-66
2023/01/14 00:52:14;;;;;;;20.00;3.00;;;;;;;-143.48;73.48;118439.88;5015161;28;20057;-66
2023/01/14 00:54:39;;;;;;;17.70;3.00;;;;;;;-143.48;73.43;118439.88;5015021;28;20495;-66
2023/01/14 00:57:05;;;;;;;17.35;2.50;;;;;;;-143.48;74.08;118439.88;5015211;28;20022;-67
2023/01/14 00:59:30;;;;;;;23.48;2.72;;;;;;;-143.48;74.13;118439.88;5015119;28;20022;-67
2023/01/14 01:01:55;;;;;;;14.15;2.40;;;;;;;-143.48;74.34;118439.88;5015046;28;20030;-66
2023/01/14 01:04:21;;;;;;;15.15;2.70;;;;;;;-143.48;74.11;118439.88;4997469;28;20022;-66
2023/01/14 01:06:46;;;;;;;13.85;1.95;;;;;;;-143.48;74.95;118439.88;4997265;28;20485;-66
2023/01/14 01:09:11;;;;;;;20.55;2.67;;;;;;;-143.48;75.24;118439.88;5014920;28;20032;-66
2023/01/14 01:11:37;;;;;;;18.25;2.65;;;;;;;-143.48;75.38;118439.88;5014878;28;20022;-66
2023/01/14 01:14:02;;;;;;;16.52;2.80;;;;;;;-143.48;75.04;118439.88;5014753;28;20050;-66
2023/01/14 01:16:27;;;;;;;19.45;3.25;;;;;;;-143.48;75.29;118439.88;5014912;28;20092;-66
2023/01/14 01:18:54;;;;;;;26.27;3.30;;;;;;;-143.48;76.04;118439.88;5014592;28;20026;-66
2023/01/14 01:21:21;;;;;;;16.90;2.67;;;;;;;-143.48;75.49;118439.88;4997092;28;20018;-64
2023/01/14 01:23:47;;;;;;;19.65;2.83;;;;;;;-143.48;76.11;118439.88;5014540;28;20105;-65
2023/01/14 01:26:15;;;;;;;17.48;2.42;;;;;;;-143.48;75.94;118439.88;5014726;28;20120;-65
2023/01/14 01:28:41;;;;;;;18.88;3.05;;;;;;;-143.48;75.67;118439.88;4997072;28;20108;-65
2023/01/14 01:31:11;;;;;;;14.32;2.55;;;;;;;-143.48;75.98;118439.88;5014477;28;20044;-66
2023/01/14 01:33:36;;;;;;;16.98;2.85;;;;;;;-143.48;75.41;118439.88;4996894;28;20022;-65
2023/01/14 01:36:05;;;;;;;19.02;3.00;;;;;;;-143.48;74.91;118439.88;4996981;28;20026;-65
2023/01/14 01:38:31;;;;;;;15.43;2.58;;;;;;;-143.48;75.54;118439.88;5014183;28;20025;-65
2023/01/14 01:40:56;;;;;;;12.85;2.38;;;;;;;-143.48;76.10;118439.88;5014399;28;20362;-65
2023/01/14 01:43:24;;;;;;;16.63;2.70;;;;;;;-143.48;75.73;118439.88;5014440;28;20025;-66
2023/01/14 01:45:51;;;;;;;17.50;3.10;;;;;;;-143.48;75.20;118439.88;5014251;28;20034;-66
2023/01/14 01:48:40;;;;;;;15.88;2.58;;;;;;;-143.48;75.07;118439.88;5014125;28;20022;-66
2023/01/14 01:51:16;;;;;;;17.88;3.00;;;;;;;-143.48;76.30;118439.88;5014219;28;20025;-66
2023/01/14 01:53:44;;;;;;;18.42;3.25;;;;;;;-143.48;76.33;118439.88;4996563;28;20026;-66
2023/01/14 01:56:14;;;;;;;16.17;2.40;;;;;;;-143.48;76.28;118439.88;4996547;28;20021;-66
2023/01/14 01:58:40;;;;;;;18.75;2.60;;;;;;;-143.48;76.38;118439.88;5014070;28;20029;-65
2023/01/14 02:01:05;;;;;;;17.27;2.63;;;;;;;-143.48;76.77;118439.88;4996488;28;20075;-65
2023/01/14 02:03:44;;;;;;;18.52;3.05;;;;;;;-143.48;77.43;118439.88;5013882;28;20037;-66
2023/01/14 02:06:11;;;;;;;18.20;2.47;;;;;;;-143.48;78.26;118439.88;5013594;28;20022;-65
2023/01/14 02:08:39;;;;;;;20.80;2.67;;;;;;;-143.48;78.80;118439.88;5013865;28;20022;-65
2023/01/14 02:11:32;;;;;;;26.77;3.00;;;;;;;-143.48;80.04;118439.88;5013924;28;20037;-64
2023/01/14 02:14:27;;;;;;;13.40;2.80;;;;;;;-143.48;80.55;118439.88;5013809;28;20431;-65
2023/01/14 02:17:16;;;;;;;23.15;3.40;;;;;;;-143.48;81.34;118439.88;5014142;28;20033;-65
2023/01/14 02:20:09;;;;;;;21.75;3.00;;;;;;;-143.48;82.52;118439.88;5013516;28;20496;-66
2023/01/14 02:23:10;;;;;;;26.05;3.00;;;;;;;-143.48;82.96;118439.88;5013901;28;20101;-65
2023/01/14 02:26:00;;;;;;;16.25;3.05;;;;;;;-143.48;82.82;118439.88;5008537;28;20525;-65
2023/01/14 02:28:34;;;;;;;22.20;3.97;;;;;;;-143.48;82.96;118439.88;5013671;28;20033;-65
2023/01/14 02:31:08;;;;;;;19.08;3.15;;;;;;;-143.48;82.35;118439.88;5013693;28;20084;-65
2023/01/14 02:33:40;;;;;;;17.02;3.47;;;;;;;-143.48;82.73;118439.88;5013525;28;20049;-66
2023/01/14 02:36:14;;;;;;;19.10;2.97;;;;;;;-143.48;82.93;118439.88;4996021;28;20037;-65
2023/01/14 02:38:58;;;;;;;27.55;4.10;;;;;;;-143.48;83.93;118439.88;4995729;28;20061;-65
2023/01/14 02:44:25;;;;;;;25.17;2.90;;;;;;;-143.48;83.86;118439.88;5013802;28;20096;-66
2023/01/14 02:46:57;;;;;;;18.40;3.28;;;;;;;-143.48;84.34;118439.88;5013539;28;20075;-66
2023/01/14 02:49:31;;;;;;;21.23;2.63;;;;;;;-143.48;84.17;118439.88;4995894;28;20128;-65
2023/01/14 02:51:58;;;;;;;21.98;3.65;;;;;;;-143.48;84.76;118439.88;5013396;28;20021;-65
2023/01/14 02:54:24;;;;;;;22.85;2.83;;;;;;;-143.48;84.94;118439.88;5013368;28;20033;-66
2023/01/14 02:56:53;;;;;;;21.42;2.85;;;;;;;-143.48;85.07;118439.88;5013381;28;20029;-63
2023/01/14 02:59:44;;;;;;;23.98;4.05;;;;;;;-143.48;85.38;118439.88;4995682;28;20030;-66
2023/01/14 03:02:29;;;;;;;20.23;3.05;;;;;;;-143.48;85.80;118439.88;5013373;28;20048;-65
2023/01/14 03:05:36;;;;;;;27.17;4.82;;;;;;;-143.48;86.22;118439.88;5013466;28;20029;-64
2023/01/14 03:08:46;;;;;;;21.67;2.92;;;;;;;-143.48;86.54;118439.88;4966201;28;20038;-65
2023/01/14 03:11:11;;;;;;;26.30;3.60;;;;;;;-143.48;86.45;118439.88;4965070;28;20418;-65
2023/01/14 03:14:02;;;;;;;23.70;4.13;;;;;;;-143.48;86.69;118439.88;5013209;28;20024;-65
2023/01/14 03:16:40;;;;;;;18.73;2.85;;;;;;;-143.48;86.50;118439.88;5013199;28;20026;-65
2023/01/14 03:19:19;;;;;;;19.42;3.05;;;;;;;-143.48;86.96;118439.88;5016888;28;20026;-66
2023/01/14 03:21:49;;;;;;;21.90;2.72;;;;;;;-143.48;86.88;118439.88;5016982;28;20541;-65
2023/01/14 03:24:22;;;;;;;20.33;3.20;;;;;;;-143.48;87.43;118439.88;4999303;28;20079;-65
2023/01/14 03:26:49;;;;;;;18.00;3.00;;;;;;;-143.48;87.52;118439.88;4998970;28;20057;-65
2023/01/14 03:29:22;;;;;;;28.58;3.15;;;;;;;-143.48;87.08;118439.88;5017006;28;20022;-65
2023/01/14 03:31:53;;;;;;;27.13;3.60;;;;;;;-143.48;87.71;118439.88;5016779;28;20072;-65
2023/01/14 03:34:27;;;;;;;22.35;2.95;;;;;;;-143.48;88.09;118439.88;5016846;28;20388;-65
2023/01/14 03:36:57;;;;;;;19.65;3.92;;;;;;;-143.48;88.06;118439.88;5016596;28;20026;-65
2023/01/14 03:39:26;;;;;;;24.38;3.53;;;;;;;-143.48;87.88;118439.88;5015984;28;20412;-66
2023/01/14 03:44:57;;;;;;;29.52;3.47;;;;;;;-143.48;87.88;118439.88;5016866;28;20037;-66
2023/01/14 03:47:25;;;;;;;27.63;4.13;;;;;;;-143.48;87.64;118439.88;5016483;28;20084;-66
2023/01/14 03:49:51;;;;;;;26.90;3.65;;;;;;;-143.48;87.59;118439.88;4998964;28;20025;-65
2023/01/14 03:52:38;;;;;;;24.83;3.70;;;;;;;-143.48;87.48;118439.88;4999088;28;20034;-66
2023/01/14 03:55:07;;;;;;;25.75;3.30;;;;;;;-143.48;87.69;118439.88;5016381;28;20025;-66
2023/01/14 03:57:38;;;;;;;33.05;4.05;;;;;;;-143.48;87.10;118439.88;5016345;28;20030;-67
2023/01/14 04:00:22;;;;;;;29.75;4.40;;;;;;;-143.48;87.04;118439.88;5016066;28;20092;-65
2023/01/14 04:02:50;;;;;;;21.00;3.70;;;;;;;-143.48;87.07;118439.88;4998854;28;20034;-66
2023/01/14 04:05:16;;;;;;;25.80;3.75;;;;;;;-143.48;87.22;118439.88;5016087;28;20389;-65
2023/01/14 04:07:42;;;;;;;27.15;3.70;;;;;;;-143.48;87.07;118439.88;5016434;28;20028;-65
2023/01/14 04:10:08;;;;;;;19.65;3.80;;;;;;;-143.48;87.21;118439.88;4998507;28;20053;-65
2023/01/14 04:12:33;;;;;;;27.30;4.18;;;;;;;-143.48;86.77;118439.88;5015815;28;20376;-66
2023/01/14 04:17:43;;;;;;;26.23;3.45;;;;;;;-143.48;87.54;118439.88;5016179;28;20047;-65
2023/01/14 04:20:09;;;;;;;27.20;3.78;;;;;;;-143.48;87.03;118439.88;5015919;28;20104;-65
2023/01/14 04:22:34;;;;;;;28.65;4.35;;;;;;;-143.48;87.21;118439.88;5015858;28;20080;-66
2023/01/14 04:24:59;;;;;;;25.70;3.92;;;;;;;-143.48;87.59;118439.88;5015748;28;20367;-66
2023/01/14 04:27:24;;;;;;;25.88;4.32;;;;;;;-143.48;87.02;118439.88;5015194;28;20133;-65
2023/01/14 04:29:50;;;;;;;31.05;3.90;;;;;;;-143.48;86.61;118439.88;5015698;28;20109;-65
2023/01/14 04:32:15;;;;;;;29.27;4.13;;;;;;;-143.48;86.66;118439.88;5015630;28;20449;-66
2023/01/14 04:34:40;;;;;;;30.00;4.57;;;;;;;-143.48;87.03;118439.88;5015555;28;20034;-66
2023/01/14 04:37:07;;;;;;;29.45;3.83;;;;;;;-143.48;86.90;118439.88;5015495;28;20539;-65
2023/01/14 04:39:33;;;;;;;33.03;4.18;;;;;;;-143.48;87.10;118439.88;5015332;28;20025;-64
2023/01/14 04:44:44;;;;;;;39.35;4.80;;;;;;;-143.48;88.02;118439.88;5015513;28;20045;-64
2023/01/14 04:47:10;;;;;;;35.35;4.28;;;;;;;-143.48;87.81;118439.88;5015266;28;20100;-65
2023/01/14 04:49:35;;;;;;;26.95;4.88;;;;;;;-143.48;88.49;118439.88;5015169;28;20564;-65
2023/01/14 04:52:00;;;;;;;40.78;4.53;;;;;;;-143.48;88.48;118439.88;5015113;28;20029;-65
2023/01/14 04:54:25;;;;;;;26.77;4.13;;;;;;;-143.48;88.59;118439.88;5015153;28;20465;-65
2023/01/14 04:56:51;;;;;;;29.13;4.53;;;;;;;-143.48;89.30;118439.88;4997463;28;20048;-65
2023/01/14 04:59:16;;;;;;;28.10;4.30;;;;;;;-143.48;89.55;118439.88;5015059;28;20504;-65
2023/01/14 05:01:41;;;;;;;34.85;5.20;;;;;;;-143.48;89.93;118439.88;4997481;28;20033;-65
2023/01/14 05:04:06;;;;;;;30.85;4.55;;;;;;;-143.48;90.12;118439.88;4997484;28;20535;-65
2023/01/14 05:06:32;;;;;;;30.35;4.28;;;;;;;-143.48;89.98;118439.88;5014886;28;20030;-65
2023/01/14 05:08:57;;;;;;;32.08;4.20;;;;;;;-143.48;89.92;118439.88;5015240;28;20018;-65
2023/01/14 05:11:22;;;;;;;26.02;5.00;;;;;;;-143.48;90.16;118439.88;4997317;28;20026;-65
2023/01/14 05:13:48;;;;;;;26.80;4.25;;;;;;;-143.48;90.53;118439.88;4997404;28;20472;-65
2023/01/14 05:16:17;;;;;;;30.08;4.55;;;;;;;-143.48;91.02;118439.88;5014769;28;20055;-66
2023/01/14 05:18:43;;;;;;;26.33;4.30;;;;;;;-143.48;90.57;118439.88;4996940;28;20026;-66
2023/01/14 05:21:08;;;;;;;26.25;4.22;;;;;;;-143.48;91.12;118439.88;5014756;28;20092;-65
2023/01/14 05:23:34;;;;;;;29.77;4.53;;;;;;;-143.48;91.88;118439.88;5014724;28;20022;-66
2023/01/14 05:25:59;;;;;;;19.00;3.38;;;;;;;-143.48;91.44;118439.88;5014697;28;20405;-65
2023/01/14 05:28:24;;;;;;;28.98;4.57;;;;;;;-143.48;91.72;118439.88;5014544;28;20022;-66
2023/01/14 05:30:50;;;;;;;27.48;4.03;;;;;;;-143.48;92.37;118439.88;4996979;28;20030;-65
2023/01/14 05:33:15;;;;;;;24.40;3.85;;;;;;;-143.48;92.04;118439.88;4996890;28;20068;-65
2023/01/14 05:35:40;;;;;;;30.73;4.57;;;;;;;-143.48;92.27;118439.88;4996686;28;20026;-66
2023/01/14 05:38:08;;;;;;;28.25;3.90;;;;;;;-143.48;92.07;118439.88;5014333;28;20053;-65
2023/01/14 05:40:34;;;;;;;33.13;4.78;;;;;;;-143.48;91.90;118439.88;5013708;28;20023;-65
2023/01/14 05:45:48;;;;;;;25.60;3.53;;;;;;;-143.48;91.75;118439.88;5015624;28;20554;-65
2023/01/14 05:48:22;;;;;;;28.25;4.18;;;;;;;-143.48;91.93;118439.88;4996811;28;20473;-65
2023/01/14 05:50:56;;;;;;;26.38;3.95;;;;;;;-143.48;91.84;118439.88;5014475;28;20038;-65
2023/01/14 05:53:22;;;;;;;29.48;4.00;;;;;;;-143.48;92.00;118439.88;5014553;28;20030;-64
2023/01/14 05:55:47;;;;;;;25.05;3.97;;;;;;;-143.48;91.76;118439.88;5014183;28;20087;-66
2023/01/14 05:58:13;;;;;;;28.80;3.67;;;;;;;-143.48;91.84;118439.88;4996312;28;20036;-66
2023/01/14 06:06:22;;;;;;;27.55;3.67;;;;;;;-143.48;90.85;118439.88;5018742;28;20515;-66
2023/01/14 06:08:55;;;;;;;30.50;3.53;;;;;;;-143.48;90.40;118439.88;5020800;28;20113;-66
2023/01/14 06:11:23;;;;;;;28.65;3.60;;;;;;;-143.48;89.81;118439.88;5019379;28;20053;-65
2023/01/14 06:13:54;;;;;;;23.77;3.50;;;;;;;-143.48;89.16;118439.88;5008824;28;20029;-68
2023/01/14 06:16:20;;;;;;;22.13;3.22;;;;;;;-143.48;88.35;118439.88;5009925;28;20041;-66
2023/01/14 06:18:45;;;;;;;27.27;3.30;;;;;;;-143.48;88.04;118439.88;4995902;28;20064;-66
2023/01/14 06:21:16;;;;;;;25.38;3.10;;;;;;;-143.48;88.27;118439.88;4996174;28;20559;-65
2023/01/14 06:23:41;;;;;;;22.63;3.70;;;;;;;-143.48;87.84;118439.88;5013475;28;20032;-64
2023/01/14 06:26:13;;;;;;;25.48;3.17;;;;;;;-143.48;87.63;118439.88;4995799;28;20045;-65
2023/01/14 06:28:39;;;;;;;22.10;3.10;;;;;;;-143.48;87.84;118439.88;5013485;28;20052;-65
2023/01/14 06:31:16;;;;;;;22.42;2.83;;;;;;;-143.48;87.57;118439.88;4996122;28;20021;-64
2023/01/14 06:33:42;;;;;;;26.50;3.20;;;;;;;-143.48;87.86;118439.88;5013582;28;20026;-64
2023/01/14 06:36:09;;;;;;;24.35;3.47;;;;;;;-143.48;88.67;118439.88;4995840;28;20033;-65
2023/01/14 06:38:36;;;;;;;18.88;3.83;;;;;;;-143.48;88.39;118439.88;4997839;28;20052;-65
2023/01/14 06:41:03;;;;;;;22.58;3.28;;;;;;;-143.48;88.40;118439.88;4998099;28;20095;-65
2023/01/14 06:43:28;;;;;;;16.00;2.88;;;;;;;-143.48;88.80;118439.88;4995835;28;20092;-67
2023/01/14 06:45:55;;;;;;;25.45;3.00;;;;;;;-143.48;89.08;118439.88;5013571;28;20038;-65
2023/01/14 06:48:21;;;;;;;24.65;2.97;;;;;;;-143.48;89.50;118439.88;5013581;28;20026;-66
2023/01/14 06:50:47;;;;;;;18.40;2.80;;;;;;;-143.48;89.05;118439.88;5013823;28;20072;-66
2023/01/14 06:53:12;;;;;;;19.95;2.42;;;;;;;-143.48;89.93;118439.88;5017520;28;20025;-63
2023/01/14 06:55:37;;;;;;;23.33;2.70;;;;;;;-143.48;90.22;118439.88;5017494;28;20022;-66
2023/01/14 06:58:03;;;;;;;25.05;3.42;;;;;;;-143.48;90.13;118439.88;5017477;28;20033;-66
2023/01/14 07:00:28;;;;;;;27.05;3.53;;;;;;;-143.48;90.12;118439.88;5017116;28;20029;-64
2023/01/14 07:02:54;;;;;;;22.65;2.83;;;;;;;-143.48;90.43;118439.88;5017433;28;20473;-65
2023/01/14 07:05:20;;;;;;;22.55;3.35;;;;;;;-143.48;90.74;118439.88;4999704;28;20493;-65
2023/01/14 07:07:47;;;;;;;19.05;2.50;;;;;;;-143.48;90.92;118439.88;4999709;28;20022;-64
2023/01/14 07:10:13;;;;;;;20.17;3.45;;;;;;;-143.48;91.11;118439.88;5017126;28;20104;-65
2023/01/14 07:12:38;;;;;;;21.52;3.15;;;;;;;-143.48;91.81;118439.88;4999454;28;20049;-65
2023/01/14 07:15:06;;;;;;;26.63;3.67;;;;;;;-143.48;92.07;118439.88;5017306;28;20103;-64
2023/01/14 07:17:31;;;;;;;18.55;2.78;;;;;;;-143.48;91.77;118439.88;5016843;28;20087;-65
2023/01/14 07:19:57;;;;;;;17.52;2.80;;;;;;;-143.48;92.40;118439.88;5017134;28;20034;-64
2023/01/14 07:22:22;;;;;;;22.30;3.58;;;;;;;-143.48;92.70;118439.88;5015404;28;20014;-64
2023/01/14 07:24:47;;;;;;;25.27;2.85;;;;;;;-143.48;93.58;118439.88;5004146;28;20316;-64
2023/01/14 07:27:13;;;;;;;26.73;4.00;;;;;;;-143.48;93.54;118439.88;5016606;28;20121;-66
2023/01/14 07:29:38;;;;;;;20.38;2.42;;;;;;;-143.48;94.59;118439.88;4998705;28;20472;-66
2023/01/14 07:32:03;;;;;;;23.70;2.95;;;;;;;-143.48;94.82;118439.88;5014801;28;20022;-64
2023/01/14 07:34:29;;;;;;;25.40;3.00;;;;;;;-143.48;95.40;118439.88;5014805;28;20472;-65
2023/01/14 07:36:54;;;;;;;25.55;3.10;;;;;;;-143.48;95.29;118439.88;5014895;28;20030;-65
2023/01/14 07:39:19;;;;;;;21.45;3.10;;;;;;;-143.48;96.33;118439.88;5015127;28;20105;-66
2023/01/14 07:41:44;;;;;;;25.77;4.00;;;;;;;-143.48;96.12;118439.88;5014685;28;20469;-64
2023/01/14 07:44:10;;;;;;;26.83;3.72;;;;;;;-143.48;96.86;118439.88;5014675;28;20029;-65
2023/01/14 07:46:35;;;;;;;19.45;3.30;;;;;;;-143.48;97.15;118439.88;5016188;28;20029;-65
2023/01/14 07:49:00;;;;;;;19.70;3.00;;;;;;;-143.48;97.12;118439.88;4998835;28;20065;-64
2023/01/14 07:51:26;;;;;;;17.17;3.10;;;;;;;-143.48;97.85;118439.88;5016418;28;20496;-64
2023/01/14 07:53:51;;;;;;;28.52;3.60;;;;;;;-143.48;98.06;118439.88;5016350;28;20025;-65
2023/01/14 07:56:17;;;;;;;21.10;3.45;;;;;;;-143.48;97.88;118439.88;5016268;28;20033;-65
2023/01/14 07:58:42;;;;;;;19.15;2.95;;;;;;;-143.48;97.74;118439.88;5016675;28;20026;-66
2023/01/14 08:01:10;;;;;;;18.98;2.67;;;;;;;-143.48;98.45;118439.88;5016327;28;20053;-65
2023/01/14 08:03:36;;;;;;;27.75;3.45;;;;;;;-143.48;98.13;118439.88;5017313;28;20041;-64
2023/01/14 08:06:04;;;;;;;15.20;3.40;;;;;;;-143.48;98.29;118439.88;4999953;28;20036;-66
2023/01/14 08:08:32;;;;;;;21.60;4.15;;;;;;;-143.48;98.83;118439.88;5000723;28;20392;-68
2023/01/14 08:10:59;;;;;;;19.92;3.40;;;;;;;-143.48;98.66;118439.88;5001019;28;20033;-65
2023/01/14 08:13:27;;;;;;;12.98;2.95;;;;;;;-143.48;98.76;118439.88;5015962;28;20030;-65
2023/01/14 08:15:57;;;;;;;12.88;2.72;;;;;;;-143.48;98.76;118439.88;5001167;28;20036;-65
2023/01/14 08:18:22;;;;;;;14.43;3.67;;;;;;;-143.48;98.89;118439.88;5015872;28;20030;-67
2023/01/14 08:20:47;;;;;;;13.65;2.40;;;;;;;-143.48;99.36;118439.88;5015919;28;20042;-66
2023/01/14 08:23:13;;;;;;;15.57;3.28;;;;;;;-143.48;99.09;118439.88;5015759;28;20045;-65
2023/01/14 08:25:38;;;;;;;16.35;2.95;;;;;;;-143.48;99.62;118439.88;5015461;28;20596;-65
2023/01/14 08:28:05;;;;;;;12.85;2.78;;;;;;;-143.48;99.72;118439.88;4998107;28;20018;-65
2023/01/14 08:30:31;;;;;;;14.82;3.00;;;;;;;-143.48;100.00;118439.88;5015686;28;20021;-66
2023/01/14 08:32:57;;;;;;;8.65;2.60;;;;;;;-143.48;99.94;118439.88;5015571;28;20388;-65
2023/01/14 08:35:22;;;;;;;11.68;3.15;;;;;;;-143.48;100.00;118439.88;5015713;28;20101;-66
2023/01/14 08:37:47;;;;;;;15.15;2.95;;;;;;;-143.48;100.00;118439.88;4997947;28;20060;-65
2023/01/14 08:40:13;;;;;;;11.05;2.95;;;;;;;-143.48;100.00;118439.88;5015302;28;20022;-65
2023/01/14 08:42:38;;;;;;;10.63;2.60;;;;;;;-143.48;100.00;118439.88;4999027;28;20079;-65
2023/01/14 08:45:04;;;;;;;12.88;3.50;;;;;;;-143.48;100.00;118439.88;5015399;28;20091;-65
2023/01/14 08:47:29;;;;;;;11.50;2.83;;;;;;;-143.48;100.00;118439.88;4997714;28;20033;-66
2023/01/14 08:49:55;;;;;;;9.18;2.72;;;;;;;-143.48;100.00;118439.88;5016818;28;20025;-64
2023/01/14 08:52:20;;;;;;;12.85;2.75;;;;;;;-143.48;100.00;118439.88;4998260;28;20056;-65
2023/01/14 08:54:45;;;;;;;13.35;3.22;;;;;;;-143.48;100.00;118439.88;5022954;28;20557;-65
2023/01/14 08:57:11;;;;;;;9.23;2.53;;;;;;;-143.48;100.00;118439.88;5001028;28;20481;-65
2023/01/14 08:59:36;;;;;;;6.68;2.83;;;;;;;-143.48;100.00;118439.88;5016247;28;20036;-68
2023/01/14 09:02:02;;;;;;;9.32;2.92;;;;;;;-143.48;100.00;118439.88;5016039;28;20392;-65
2023/01/14 09:04:27;;;;;;;11.45;3.08;;;;;;;-143.48;100.00;118439.88;5016150;28;20036;-65
2023/01/14 09:17:58;;;;;;;11.47;2.80;;;;;;;-143.48;100.00;118439.88;5027533;28;20100;-67
2023/01/14 09:20:28;;;;;;;7.78;2.72;;;;;;;-143.48;100.00;118439.88;5028373;28;20030;-68
2023/01/14 09:22:53;;;;;;;7.88;2.83;;;;;;;-143.48;100.00;118439.88;5028747;28;20028;-65
2023/01/14 09:25:18;;;;;;;6.72;2.78;;;;;;;-143.48;100.00;118439.88;5029155;28;20061;-68
2023/01/14 09:27:44;;;;;;;8.52;2.72;;;;;;;-143.48;100.00;118439.88;5029931;28;20025;-67
2023/01/14 09:30:10;;;;;;;9.30;2.88;;;;;;;-143.48;100.00;118439.88;5013357;28;20083;-66
2023/01/14 09:32:39;;;;;;;7.07;3.05;;;;;;;-143.48;100.00;118439.88;5010174;28;20029;-66
2023/01/14 09:35:06;;;;;;;8.43;2.72;;;;;;;-143.48;100.00;118439.88;5002685;28;20026;-64
2023/01/14 09:37:33;;;;;;;7.82;3.00;;;;;;;-143.48;99.95;118439.88;5019366;28;20030;-65
2023/01/14 09:39:59;;;;;;;6.50;2.70;;;;;;;-143.48;99.73;118439.88;5004026;28;20029;-65
2023/01/14 09:42:24;;;;;;;7.05;2.63;;;;;;;-143.48;99.19;118439.88;5002512;28;20544;-64
2023/01/14 09:44:58;;;;;;;5.30;2.90;;;;;;;-143.48;99.61;118439.88;5001319;28;20364;-64
2023/01/14 09:47:23;;;;;;;6.65;2.50;;;;;;;-143.48;99.47;118439.88;5018299;28;20113;-66
2023/01/14 09:49:48;;;;;;;6.68;2.67;;;;;;;-143.48;99.25;118439.88;5001061;28;20119;-65
2023/01/14 09:52:45;;;;;;;8.20;3.30;;;;;;;-143.48;99.65;118439.88;5018445;28;20032;-64
2023/01/14 09:55:18;;;;;;;7.90;2.85;;;;;;;-143.48;100.00;118439.88;5018120;28;20030;-65
2023/01/14 09:57:55;;;;;;;6.00;2.65;;;;;;;-143.48;100.00;118439.88;5003654;28;20076;-65
2023/01/14 10:00:38;;;;;;;7.72;2.60;;;;;;;-143.48;100.00;118439.88;4998202;28;20022;-65
2023/01/14 10:03:43;;;;;;;6.15;2.78;;;;;;;-143.48;100.00;118439.88;5015738;28;20108;-65
2023/01/14 10:06:15;;;;;;;5.70;2.45;;;;;;;-143.48;100.00;118439.88;4997006;28;20034;-65
2023/01/14 10:08:45;;;;;;;7.30;2.83;;;;;;;-143.48;100.00;118439.88;5015163;28;20037;-64
2023/01/14 10:11:12;;;;;;;5.68;2.70;;;;;;;-143.48;100.00;118439.88;5013746;28;20018;-64
2023/01/14 10:14:04;;;;;;;8.10;2.80;;;;;;;-143.48;100.00;118439.88;4996152;28;20030;-65
2023/01/14 10:16:36;;;;;;;8.23;2.85;;;;;;;-143.48;100.00;118439.88;4996736;28;20018;-65
2023/01/14 10:19:05;;;;;;;8.77;2.70;;;;;;;-143.48;100.00;118439.88;5002033;28;20025;-67
2023/01/14 10:21:46;;;;;;;8.05;2.30;;;;;;;-143.48;100.00;118439.88;4982756;28;20030;-67
2023/01/14 10:24:14;;;;;;;8.73;2.80;;;;;;;-143.48;100.00;118439.88;4996226;28;20491;-65
2023/01/14 10:26:40;;;;;;;5.50;2.22;;;;;;;-143.48;100.00;118439.88;5013098;28;20069;-67
2023/01/14 10:29:21;;;;;;;8.63;2.80;;;;;;;-143.48;100.00;118439.88;5013598;28;20088;-66
2023/01/14 10:31:51;;;;;;;13.10;2.50;;;;;;;-143.48;100.00;118439.88;4998514;28;20037;-67
2023/01/14 10:34:25;;;;;;;10.13;2.85;;;;;;;-143.48;100.00;118439.88;4995578;28;20110;-65
2023/01/14 10:36:50;;;;;;;9.25;2.92;;;;;;;-143.48;100.00;118439.88;4995030;28;20022;-63
2023/01/14 10:39:16;;;;;;;6.72;2.40;;;;;;;-143.48;99.91;118439.88;5013034;28;20543;-65
2023/01/14 10:41:50;;;;;;;5.22;2.53;;;;;;;-143.48;100.00;118439.88;5013539;28;20025;-64
2023/01/14 10:44:23;;;;;;;6.57;2.70;;;;;;;-143.48;100.00;118439.88;5014029;28;20531;-64
2023/01/14 10:46:50;;;;;;;9.02;2.40;;;;;;;-143.48;100.00;118439.88;4995940;28;20127;-65
2023/01/14 10:49:21;;;;;;;9.27;2.20;;;;;;;-143.48;100.00;118439.88;4996041;28;20026;-66
2023/01/14 10:51:47;;;;;;;6.88;2.80;;;;;;;-143.48;100.00;118439.88;5012967;28;20022;-66
2023/01/14 10:54:16;;;;;;;9.20;2.80;;;;;;;-143.48;100.00;118439.88;4994305;28;20029;-66
2023/01/14 10:56:46;;;;;;;5.57;2.20;;;;;;;-143.48;100.00;118439.88;5012941;28;20029;-67
2023/01/14 10:59:28;;;;;;;6.00;2.33;;;;;;;-143.48;100.00;118439.88;5012069;28;20033;-65
2023/01/14 11:01:54;;;;;;;10.32;2.67;;;;;;;-143.48;100.00;118439.88;5012033;28;20057;-66
2023/01/14 11:04:23;;;;;;;9.45;2.80;;;;;;;-143.48;100.00;118439.88;5012054;28;20515;-65
2023/01/14 11:06:48;;;;;;;9.27;2.60;;;;;;;-143.48;100.00;118439.88;5011707;28;20034;-66
2023/01/14 11:09:20;;;;;;;7.82;2.40;;;;;;;-143.48;100.00;118439.88;5012106;28;20428;-65
2023/01/14 11:11:46;;;;;;;6.65;2.42;;;;;;;-143.48;100.00;118439.88;4995709;28;20132;-65
2023/01/14 11:14:39;;;;;;;5.40;2.22;;;;;;;-143.48;100.00;118439.88;5012971;28;20536;-64
2023/01/14 11:17:25;;;;;;;4.97;2.10;;;;;;;-143.48;100.00;118439.88;4991195;28;20034;-65
2023/01/14 11:19:51;;;;;;;6.90;1.88;;;;;;;-143.48;100.00;118439.88;5012753;28;20022;-65
2023/01/14 11:22:17;;;;;;;7.65;2.20;;;;;;;-143.48;100.00;118439.88;5012934;28;20400;-65
2023/01/14 11:24:51;;;;;;;4.47;2.00;;;;;;;-143.48;100.00;118439.88;5012892;28;20037;-65
2023/01/14 11:27:20;;;;;;;5.97;2.00;;;;;;;-143.48;100.00;118439.88;5012796;28;20050;-65
2023/01/14 11:29:54;;;;;;;6.68;1.80;;;;;;;-143.48;100.00;118439.88;5012120;28;20049;-65
2023/01/14 11:32:26;;;;;;;5.00;1.80;;;;;;;-143.48;100.00;118439.88;5012109;28;20119;-65
2023/01/14 11:34:58;;;;;;;4.18;1.60;;;;;;;-143.48;100.00;118439.88;5011617;28;20443;-65
2023/01/14 11:37:32;;;;;;;4.38;1.80;;;;;;;-143.48;100.00;118439.88;5011988;28;20062;-66
2023/01/14 11:39:59;;;;;;;4.78;1.90;;;;;;;-143.48;100.00;118439.88;4998995;28;20026;-65
2023/01/14 11:42:31;;;;;;;3.25;1.65;;;;;;;-143.48;100.00;118439.88;5016190;28;20477;-65